Time;durP1;ratioP1;P1;durP2;ratioP2;P2;SDS_P1;SDS_P2;PMS_P1;PMS_P2;Temp;Humidity;BMP_temperature;BMP_pressure;BME280_temperature;BME280_humidity;BME280_pressure;Samples;Min_cycle;Max_cycle;Signal;HPM_P1;HPM_P2
2022/12/22 03:26:18;;;;;;;;;1.00;0.25;;;;;12.73;83.04;100324.13;4944893;28;45546;-86
2022/12/22 03:28:43;;;;;;;;;2.00;0.00;;;;;12.70;83.44;100359.97;4996712;28;46507;-86
2022/12/22 03:31:08;;;;;;;;;0.00;0.00;;;;;12.64;83.17;100341.97;4996913;28;45421;-87
2022/12/22 03:33:34;;;;;;;;;2.00;0.00;;;;;12.61;83.05;100345.56;4979012;28;49175;-86
2022/12/22 03:35:59;;;;;;;;;1.50;0.00;;;;;12.56;83.09;100342.31;4979043;28;56487;-87
2022/12/22 03:38:25;;;;;;;;;2.25;0.00;;;;;12.55;82.94;100344.06;4978924;28;47117;-87
2022/12/22 03:40:53;;;;;;;;;2.25;0.00;;;;;12.53;82.92;100369.38;4962921;28;46653;-87
2022/12/22 03:49:08;;;;;;;;;5.25;0.75;;;;;12.54;82.48;100334.53;4996562;28;45453;-85
2022/12/22 03:51:33;;;;;;;;;0.75;0.00;;;;;12.53;82.70;100316.31;4996718;28;45632;-88
2022/12/22 03:53:58;;;;;;;;;1.75;1.25;;;;;12.51;82.43;100334.66;4978628;28;45480;-87
2022/12/22 03:56:24;;;;;;;;;0.00;0.00;;;;;12.48;82.77;100319.16;4979326;28;45406;-87
2022/12/22 03:58:49;;;;;;;;;1.00;0.00;;;;;12.46;82.83;100351.44;4996362;28;46212;-86
2022/12/22 04:01:15;;;;;;;;;2.00;0.00;;;;;12.43;82.86;100342.00;4978891;28;52701;-87
2022/12/22 04:03:41;;;;;;;;;2.00;0.00;;;;;12.43;82.74;100336.78;4979008;28;45382;-87
2022/12/22 04:06:08;;;;;;;;;1.25;0.00;;;;;12.43;82.71;100344.59;4994558;28;62944;-86
2022/12/22 04:08:34;;;;;;;;;0.00;0.00;;;;;12.45;82.43;100341.94;4996033;28;54040;-86
2022/12/22 04:13:45;;;;;;;;;6.50;0.25;;;;;12.49;82.71;100382.66;4981448;28;45434;-87
2022/12/22 04:16:11;;;;;;;;;0.00;0.00;;;;;12.49;82.00;100375.66;4979256;28;45530;-87
2022/12/22 04:18:36;;;;;;;;;3.25;1.00;;;;;12.51;82.04;100386.03;4978685;28;47916;-87
2022/12/22 04:21:02;;;;;;;;;1.25;1.00;;;;;12.53;81.81;100403.31;4995839;28;51396;-87
2022/12/22 04:23:27;;;;;;;;;2.50;0.00;;;;;12.53;82.00;100399.88;4994554;28;45528;-87
2022/12/22 04:25:52;;;;;;;;;2.00;1.00;;;;;12.53;81.98;100424.22;4995779;28;45343;-87
2022/12/22 04:28:18;;;;;;;;;1.00;0.00;;;;;12.56;81.97;100394.53;4978384;28;46410;-88
2022/12/22 04:30:43;;;;;;;;;0.75;0.00;;;;;12.58;81.69;100426.63;4995991;28;45438;-87
2022/12/22 04:33:08;;;;;;;;;1.00;0.00;;;;;12.60;81.71;100432.63;4978760;28;45608;-87
2022/12/22 04:35:34;;;;;;;;;1.00;0.00;;;;;12.63;81.45;100449.94;4978287;28;45424;-87
2022/12/22 04:37:59;;;;;;;;;0.00;0.00;;;;;12.65;80.80;100459.41;4996002;28;46079;-86
2022/12/22 04:40:25;;;;;;;;;0.75;0.00;;;;;12.68;80.92;100472.31;4978402;28;45383;-85
2022/12/22 04:42:50;;;;;;;;;1.00;0.00;;;;;12.68;80.94;100480.16;4962062;28;45496;-87
2022/12/22 04:45:15;;;;;;;;;0.00;0.00;;;;;12.66;81.44;100482.00;4961609;28;61448;-88
2022/12/22 04:47:41;;;;;;;;;1.00;0.00;;;;;12.67;81.15;100493.31;4978498;28;45447;-87
2022/12/22 04:50:07;;;;;;;;;0.00;0.00;;;;;12.66;81.23;100508.09;4961489;28;47823;-86
2022/12/22 04:52:32;;;;;;;;;0.00;0.00;;;;;12.66;81.41;100518.53;4978444;28;45435;-87
2022/12/22 04:54:57;;;;;;;;;0.00;0.00;;;;;12.65;81.23;100521.22;4978233;28;45414;-87
2022/12/22 04:57:23;;;;;;;;;1.75;0.00;;;;;12.65;81.11;100518.59;4994238;28;48265;-87
2022/12/22 04:59:48;;;;;;;;;0.00;0.00;;;;;12.65;81.25;100524.69;4978209;28;52000;-87
2022/12/22 05:02:14;;;;;;;;;0.00;0.00;;;;;12.66;81.56;100523.78;4978458;28;45576;-87
2022/12/22 05:04:39;;;;;;;;;0.00;0.00;;;;;12.66;81.15;100538.59;4978141;28;45376;-87
2022/12/22 05:07:06;;;;;;;;;1.00;0.00;;;;;12.63;81.28;100543.94;4978127;28;46310;-88
2022/12/22 05:09:32;;;;;;;;;0.00;0.00;;;;;12.62;81.28;100561.38;4962163;28;45974;-87
2022/12/22 05:11:57;;;;;;;;;0.00;0.00;;;;;12.61;80.89;100564.91;4978119;28;45508;-87
2022/12/22 05:14:22;;;;;;;;;0.00;0.00;;;;;12.59;80.60;100570.19;4978385;28;45556;-87
2022/12/22 05:16:48;;;;;;;;;0.00;0.00;;;;;12.58;80.56;100578.91;4978028;28;47762;-86
2022/12/22 05:19:13;;;;;;;;;0.00;0.00;;;;;12.58;80.90;100581.53;4977646;28;47732;-87
2022/12/22 05:21:38;;;;;;;;;0.00;0.00;;;;;12.61;80.73;100583.19;4978172;28;45462;-87
2022/12/22 05:24:04;;;;;;;;;1.00;0.00;;;;;12.61;80.20;100587.53;4978040;28;45414;-88
2022/12/22 05:26:30;;;;;;;;;0.00;0.00;;;;;12.61;80.50;100582.31;4995604;28;45964;-88
2022/12/22 05:28:55;;;;;;;;;0.00;0.00;;;;;12.61;80.11;100606.69;4977817;28;45560;-87
2022/12/22 05:31:22;;;;;;;;;0.00;0.00;;;;;12.60;79.97;100591.91;4978139;28;45460;-88
2022/12/22 05:33:48;;;;;;;;;0.00;0.00;;;;;12.63;80.29;100604.00;4995314;28;45437;-87
2022/12/22 05:36:14;;;;;;;;;1.00;0.00;;;;;12.64;79.97;100603.09;4995988;28;48178;-88
2022/12/22 05:38:40;;;;;;;;;0.00;0.00;;;;;12.65;79.54;100607.38;4998854;28;45398;-87
2022/12/22 05:41:06;;;;;;;;;0.75;0.00;;;;;12.65;79.60;100602.16;4981233;28;45672;-88
2022/12/22 05:43:33;;;;;;;;;0.00;0.00;;;;;12.66;79.51;100609.09;4981505;28;45424;-88
2022/12/22 05:46:03;;;;;;;;;0.00;0.00;;;;;12.67;79.19;100613.44;4965002;28;47038;-88
2022/12/22 05:48:29;;;;;;;;;0.00;0.00;;;;;12.66;78.67;100612.56;4998495;28;45511;-88
2022/12/22 05:50:54;;;;;;;;;1.25;0.00;;;;;12.67;78.74;100624.72;4965038;28;45257;-87
2022/12/22 05:53:19;;;;;;;;;0.00;0.00;;;;;12.65;78.54;100628.28;4964513;28;48666;-87
2022/12/22 05:55:45;;;;;;;;;0.00;0.00;;;;;12.64;78.63;100624.81;4981011;28;46475;-88
2022/12/22 05:58:10;;;;;;;;;2.00;0.00;;;;;12.64;78.49;100632.66;4964676;28;45648;-88
2022/12/22 06:00:36;;;;;;;;;1.00;0.00;;;;;12.68;78.76;100628.16;4998669;28;45275;-88
2022/12/22 06:03:01;;;;;;;;;0.00;0.00;;;;;12.68;78.93;100628.16;4980628;28;45471;-88
2022/12/22 06:05:26;;;;;;;;;0.00;0.00;;;;;12.66;78.70;100643.91;4980728;28;46937;-88
2022/12/22 06:07:52;;;;;;;;;0.00;0.00;;;;;12.68;78.75;100643.84;4980844;28;45390;-88
2022/12/22 06:10:17;;;;;;;;;0.00;0.00;;;;;12.65;78.32;100639.59;4980876;28;45303;-88
2022/12/22 06:12:43;;;;;;;;;0.00;0.00;;;;;12.65;78.81;100652.66;4980425;28;45374;-88
2022/12/22 06:15:11;;;;;;;;;0.00;0.00;;;;;12.62;78.94;100652.75;4964537;28;49646;-87
2022/12/22 06:17:36;;;;;;;;;0.00;0.00;;;;;12.58;79.16;100661.63;4997924;28;45662;-88
2022/12/22 06:20:03;;;;;;;;;0.00;0.00;;;;;12.54;79.13;100667.88;4980630;28;45432;-87
2022/12/22 06:22:29;;;;;;;;;0.50;0.00;;;;;12.50;79.71;100679.34;4980334;28;45419;-87
2022/12/22 06:24:54;;;;;;;;;0.00;0.00;;;;;12.44;80.87;100687.41;4980410;28;47112;-86
2022/12/22 06:27:19;;;;;;;;;0.00;0.00;;;;;12.35;81.78;100693.81;4980018;28;57965;-87
2022/12/22 06:29:45;;;;;;;;;0.00;0.00;;;;;12.27;82.72;100695.88;4980367;28;45411;-87
2022/12/22 06:32:10;;;;;;;;;0.00;0.00;;;;;12.16;82.98;100697.09;4980080;28;45348;-87
2022/12/22 06:34:36;;;;;;;;;0.00;0.00;;;;;12.07;83.96;100693.97;4980315;28;46124;-87
2022/12/22 06:37:01;;;;;;;;;0.00;0.00;;;;;12.02;84.12;100699.38;4996541;28;48019;-86
2022/12/22 06:39:26;;;;;;;;;0.00;0.00;;;;;11.94;84.20;100699.63;4980336;28;45203;-87
2022/12/22 06:44:36;;;;;;;;;0.00;0.00;;;;;11.88;85.33;100715.44;4982640;28;45371;-87
2022/12/22 06:47:01;;;;;;;;;0.00;0.00;;;;;11.88;85.59;100709.38;4978261;28;59621;-86
2022/12/22 06:49:27;;;;;;;;;0.00;0.00;;;;;11.86;86.07;100717.25;4979773;28;48638;-87
2022/12/22 06:51:52;;;;;;;;;0.75;0.00;;;;;11.86;85.88;100716.41;4979370;28;63934;-87
2022/12/22 06:54:17;;;;;;;;;0.00;0.00;;;;;11.83;86.47;100717.38;4979870;28;46116;-86
2022/12/22 06:56:43;;;;;;;;;0.00;0.00;;;;;11.79;86.41;100714.03;4979315;28;51272;-88
2022/12/22 06:59:08;;;;;;;;;0.00;0.00;;;;;11.78;86.75;100722.75;4979363;28;58040;-88
2022/12/22 07:01:34;;;;;;;;;0.00;0.00;;;;;11.76;87.02;100727.16;4979356;28;46494;-87
2022/12/22 07:03:59;;;;;;;;;1.25;0.00;;;;;11.78;86.85;100729.72;4997368;28;47344;-87
2022/12/22 07:06:24;;;;;;;;;1.00;0.00;;;;;11.77;86.89;100741.06;4997071;28;51227;-86
2022/12/22 07:08:50;;;;;;;;;0.50;0.00;;;;;11.74;87.08;100730.75;4979426;28;48224;-88
2022/12/22 07:11:15;;;;;;;;;0.25;0.00;;;;;11.75;87.54;100730.66;4997390;28;45403;-88
2022/12/22 07:13:41;;;;;;;;;2.00;0.00;;;;;11.75;87.25;100735.88;4979370;28;48286;-87
2022/12/22 07:16:07;;;;;;;;;1.50;0.00;;;;;11.75;87.14;100735.88;4978602;28;63012;-88
2022/12/22 07:18:36;;;;;;;;;0.75;0.00;;;;;11.74;87.43;100738.56;4979954;28;45331;-87
2022/12/22 07:21:02;;;;;;;;;1.50;0.00;;;;;11.74;87.89;100742.00;4979586;28;45524;-88
2022/12/22 07:23:28;;;;;;;;;0.00;0.00;;;;;11.76;87.73;100752.41;4996972;28;46685;-88
2022/12/22 07:25:54;;;;;;;;;2.00;1.00;;;;;11.76;87.34;100744.56;4997036;28;45373;-88
2022/12/22 07:28:19;;;;;;;;;3.25;1.00;;;;;11.74;87.27;100760.28;4996913;28;45419;-87
2022/12/22 07:30:45;;;;;;;;;2.50;0.00;;;;;11.76;87.33;100762.84;4962650;28;49156;-88
2022/12/22 07:33:10;;;;;;;;;1.00;1.00;;;;;11.76;87.35;100753.25;4979232;28;45404;-88
2022/12/22 07:35:35;;;;;;;;;1.00;1.00;;;;;11.77;87.42;100759.31;4996814;28;45268;-88
2022/12/22 07:38:01;;;;;;;;;7.75;1.50;;;;;11.76;87.45;100763.69;4979338;28;45454;-88
2022/12/22 07:40:26;;;;;;;;;1.00;1.00;;;;;11.78;87.22;100767.09;4979317;28;45621;-88
2022/12/22 07:42:56;;;;;;;;;1.75;1.00;;;;;11.77;87.34;100767.97;4976424;28;46006;-88
2022/12/22 07:45:22;;;;;;;;;7.75;1.00;;;;;11.78;87.23;100766.25;4978813;28;45347;-88
2022/12/22 07:47:47;;;;;;;;;2.00;1.00;;;;;11.79;87.22;100765.31;4996826;28;45462;-88
2022/12/22 07:50:24;;;;;;;;;2.25;1.75;;;;;11.78;87.02;100766.25;4995574;28;45375;-88
2022/12/22 07:52:54;;;;;;;;;3.50;1.25;;;;;11.78;87.14;100764.47;4980160;28;47346;-88
2022/12/22 07:55:20;;;;;;;;;6.50;1.75;;;;;11.82;87.20;100773.88;4975999;28;45800;-88
2022/12/22 07:57:46;;;;;;;;;1.75;1.00;;;;;11.81;86.98;100756.56;4991279;28;45367;-88
2022/12/22 08:00:12;;;;;;;;;6.00;1.25;;;;;11.81;86.60;100771.31;4996370;28;45398;-88
2022/12/22 08:02:38;;;;;;;;;6.25;2.00;;;;;11.81;86.48;100760.91;4996656;28;45437;-88
2022/12/22 08:05:04;;;;;;;;;6.50;2.00;;;;;11.82;86.79;100770.44;4979240;28;46045;-88
2022/12/22 08:09:59;;;;;;;;;7.00;1.25;;;;;11.86;86.37;100766.81;5056028;22;66165;-88
2022/12/22 08:12:25;;;;;;;;;9.50;2.00;;;;;11.87;86.15;100772.88;5038621;28;45704;-87
2022/12/22 08:14:50;;;;;;;;;5.00;2.50;;;;;11.88;86.06;100787.63;5037882;28;45309;-86
2022/12/22 08:17:16;;;;;;;;;4.50;2.00;;;;;11.88;85.76;100785.03;5038474;28;45231;-88
2022/12/22 08:19:49;;;;;;;;;11.00;4.00;;;;;11.92;85.92;100791.88;5039361;28;45451;-88
2022/12/22 08:22:15;;;;;;;;;13.25;2.00;;;;;11.92;85.50;100786.66;5039205;28;45620;-87
2022/12/22 08:24:40;;;;;;;;;4.25;3.25;;;;;11.94;85.24;100780.50;5056128;28;45242;-86
2022/12/22 08:27:11;;;;;;;;;8.00;4.00;;;;;11.97;85.40;100792.59;5055942;28;45294;-88
2022/12/22 08:29:40;;;;;;;;;4.00;1.75;;;;;11.99;85.38;100802.03;5038280;28;45353;-87
2022/12/22 08:32:06;;;;;;;;;11.00;2.50;;;;;12.02;84.98;100803.72;5037927;28;45451;-87
2022/12/22 08:34:31;;;;;;;;;3.25;2.50;;;;;12.04;84.69;100796.69;5038171;28;45301;-87
2022/12/22 08:36:59;;;;;;;;;7.50;2.00;;;;;12.06;84.47;100805.31;5038073;28;45401;-87
2022/12/22 08:39:27;;;;;;;;;3.50;2.00;;;;;12.07;84.43;100796.59;5037908;28;45508;-87
2022/12/22 08:41:53;;;;;;;;;4.50;2.00;;;;;12.10;84.10;100793.00;5020787;28;48106;-88
2022/12/22 08:44:26;;;;;;;;;7.50;6.00;;;;;12.15;84.32;100791.94;5037980;28;45716;-88
2022/12/22 08:46:58;;;;;;;;;7.00;3.00;;;;;12.18;83.92;100786.63;5038376;28;45479;-88
2022/12/22 08:49:24;;;;;;;;;12.00;2.00;;;;;12.21;83.74;100783.06;5038298;28;45449;-88
2022/12/22 08:51:51;;;;;;;;;11.75;3.75;;;;;12.27;83.47;100787.22;5056221;28;46566;-88
2022/12/22 08:54:20;;;;;;;;;7.00;3.50;;;;;12.28;83.57;100795.00;5038369;28;45364;-88
2022/12/22 08:56:46;;;;;;;;;9.00;4.00;;;;;12.32;83.28;100787.91;5055813;28;45291;-88
2022/12/22 08:59:12;;;;;;;;;5.25;3.75;;;;;12.36;83.13;100784.28;5038166;28;45357;-88
2022/12/22 09:01:42;;;;;;;;;3.75;3.00;;;;;12.38;83.03;100791.13;5055548;28;45394;-88
2022/12/22 09:04:09;;;;;;;;;8.25;2.50;;;;;12.41;82.98;100787.59;5055533;28;45420;-89
2022/12/22 09:06:34;;;;;;;;;11.25;4.25;;;;;12.40;82.55;100789.31;5037723;28;45449;-88
2022/12/22 09:09:02;;;;;;;;;7.25;3.00;;;;;12.41;82.65;100782.34;5037177;28;45455;-89
2022/12/22 09:11:28;;;;;;;;;12.50;4.00;;;;;12.43;82.33;100785.75;5039257;28;46633;-89
2022/12/22 09:13:56;;;;;;;;;5.75;4.00;;;;;12.43;82.33;100784.91;5040954;28;45909;-87
2022/12/22 09:16:22;;;;;;;;;4.50;3.00;;;;;12.41;82.16;100787.59;5041110;28;45396;-89
2022/12/22 09:18:48;;;;;;;;;9.25;5.00;;;;;12.42;82.15;100785.81;5041129;28;45471;-88
2022/12/22 09:21:14;;;;;;;;;12.75;4.00;;;;;12.43;81.95;100785.75;5058821;28;46317;-89
2022/12/22 09:23:40;;;;;;;;;12.50;4.50;;;;;12.43;81.73;100788.38;5041060;28;45388;-88
2022/12/22 09:26:07;;;;;;;;;13.75;3.00;;;;;12.44;81.54;100786.59;5058576;28;45349;-89
2022/12/22 09:28:33;;;;;;;;;2.00;2.00;;;;;12.45;81.28;100791.78;5058728;28;45674;-89
2022/12/22 09:30:58;;;;;;;;;7.25;5.00;;;;;12.48;81.23;100794.28;5040680;28;45367;-88
2022/12/22 09:33:25;;;;;;;;;11.25;2.75;;;;;12.47;81.34;100779.53;5040548;28;46031;-88
2022/12/22 09:35:50;;;;;;;;;15.25;5.00;;;;;12.51;81.61;100790.69;5058682;28;45435;-88
2022/12/22 09:38:16;;;;;;;;;10.75;6.50;;;;;12.54;81.65;100791.44;5040650;28;45385;-88
2022/12/22 09:40:41;;;;;;;;;6.00;3.00;;;;;12.58;81.62;100790.41;5039922;28;55391;-88
2022/12/22 09:43:11;;;;;;;;;7.50;3.00;;;;;12.66;81.33;100807.56;5020509;28;45439;-88
2022/12/22 09:45:36;;;;;;;;;12.00;3.00;;;;;12.71;81.27;100823.94;5020612;28;45406;-86
2022/12/22 09:48:02;;;;;;;;;7.25;3.00;;;;;12.77;80.63;100805.41;5037580;28;45339;-88
2022/12/22 09:50:29;;;;;;;;;13.25;5.00;;;;;12.83;80.83;100817.41;5003838;28;47380;-88
2022/12/22 09:52:56;;;;;;;;;7.00;2.00;;;;;12.87;80.20;100819.84;5003684;28;45691;-88
2022/12/22 09:55:35;;;;;;;;;3.50;2.75;;;;;12.88;80.33;100821.53;5003529;28;45392;-87
2022/12/22 09:58:00;;;;;;;;;11.50;6.25;;;;;12.88;80.46;100824.16;5020275;28;45342;-87
2022/12/22 10:00:27;;;;;;;;;7.50;2.50;;;;;12.89;80.11;100823.25;5020328;28;47072;-88
2022/12/22 10:02:55;;;;;;;;;6.50;2.50;;;;;12.92;80.21;100823.13;5020434;28;45299;-88
2022/12/22 10:05:29;;;;;;;;;8.00;1.25;;;;;12.96;80.86;100813.41;5020512;28;45374;-87
2022/12/22 10:08:00;;;;;;;;;10.50;4.00;;;;;13.00;80.15;100820.25;5020823;28;45390;-88
2022/12/22 10:10:28;;;;;;;;;7.00;3.00;;;;;13.00;80.05;100808.94;5031338;28;46516;-88
2022/12/22 10:12:55;;;;;;;;;9.25;3.25;;;;;13.01;79.93;100811.50;5039931;28;46079;-88
2022/12/22 10:15:20;;;;;;;;;11.75;1.50;;;;;13.02;80.00;100807.97;5040007;28;45416;-88
2022/12/22 10:17:51;;;;;;;;;7.75;4.00;;;;;13.06;79.81;100813.94;5058189;28;45403;-88
2022/12/22 10:20:20;;;;;;;;;10.25;3.00;;;;;13.12;80.13;100804.09;5039877;28;46860;-88
2022/12/22 10:22:52;;;;;;;;;7.25;2.50;;;;;13.16;80.47;100807.44;5056389;28;45387;-88
2022/12/22 10:25:42;;;;;;;;;8.50;3.00;;;;;13.21;79.50;100808.13;5039693;28;45441;-87
2022/12/22 10:28:20;;;;;;;;;9.00;4.25;;;;;13.27;79.64;100813.09;5039968;28;45482;-88
2022/12/22 10:30:45;;;;;;;;;11.00;3.00;;;;;13.33;79.64;100812.03;5040162;28;47534;-88
2022/12/22 10:33:15;;;;;;;;;4.00;3.25;;;;;13.41;79.75;100812.59;5039880;28;45329;-88
2022/12/22 10:35:48;;;;;;;;;5.25;1.50;;;;;13.47;79.13;100812.34;5040047;28;45496;-88
2022/12/22 10:38:40;;;;;;;;;7.75;1.50;;;;;13.49;78.94;100804.44;5039406;28;45552;-88
2022/12/22 10:41:12;;;;;;;;;9.25;5.00;;;;;13.51;78.68;100800.00;5055221;28;45386;-88
2022/12/22 10:43:44;;;;;;;;;9.25;3.75;;;;;13.52;78.47;100794.72;5039808;28;45715;-88
2022/12/22 10:46:10;;;;;;;;;10.50;4.00;;;;;13.52;78.44;100797.34;5023196;28;45387;-88
2022/12/22 10:48:37;;;;;;;;;8.50;4.00;;;;;13.52;78.61;100799.06;5039645;28;45349;-88
2022/12/22 10:51:06;;;;;;;;;8.75;2.75;;;;;13.51;78.13;100793.00;5039464;28;47184;-88
2022/12/22 10:53:39;;;;;;;;;6.00;2.25;;;;;13.53;78.06;100804.25;5039253;28;45590;-87
2022/12/22 10:56:06;;;;;;;;;7.75;3.25;;;;;13.53;78.08;100793.78;5039552;28;45290;-88
2022/12/22 10:58:46;;;;;;;;;3.50;2.00;;;;;13.57;77.79;100801.53;5039589;28;45514;-88
2022/12/22 11:01:11;;;;;;;;;13.00;3.50;;;;;13.59;77.75;100802.31;5022571;28;48308;-88
2022/12/22 11:03:37;;;;;;;;;4.00;3.25;;;;;13.60;77.71;100804.88;5039287;28;45320;-88
2022/12/22 11:06:10;;;;;;;;;7.25;2.00;;;;;13.65;77.71;100802.06;5039481;28;45377;-88
2022/12/22 11:08:35;;;;;;;;;8.50;2.25;;;;;13.67;77.50;100795.00;5056573;28;46258;-88
2022/12/22 11:11:06;;;;;;;;;9.25;3.75;;;;;13.69;77.23;100790.56;5021582;28;66332;-88
2022/12/22 11:13:53;;;;;;;;;8.75;8.00;;;;;13.69;77.41;100801.88;5039063;28;45417;-87
2022/12/22 11:16:24;;;;;;;;;10.50;2.00;;;;;13.69;77.02;100796.66;5039212;28;45297;-87
2022/12/22 11:19:07;;;;;;;;;11.00;3.00;;;;;13.67;77.07;100798.47;5038983;28;45330;-88
2022/12/22 11:21:45;;;;;;;;;8.00;2.50;;;;;13.71;77.00;100802.66;5038756;28;45768;-88
2022/12/22 11:24:48;;;;;;;;;15.00;6.75;;;;;13.71;76.72;100796.59;5022239;28;45894;-88
2022/12/22 11:27:19;;;;;;;;;7.00;3.00;;;;;13.70;76.66;100784.41;5056925;28;45314;-88
2022/12/22 11:30:06;;;;;;;;;3.00;3.00;;;;;13.71;76.70;100788.75;5055528;28;45447;-88
2022/12/22 11:32:47;;;;;;;;;2.50;2.00;;;;;13.73;76.48;100779.06;5038941;28;47377;-89
2022/12/22 11:35:25;;;;;;;;;1.75;1.25;;;;;13.72;76.33;100777.34;5055329;28;45764;-88
2022/12/22 11:37:55;;;;;;;;;8.00;2.75;;;;;13.70;76.70;100780.03;5038986;28;45468;-88
2022/12/22 11:40:23;;;;;;;;;6.25;3.75;;;;;13.70;76.48;100785.25;5039496;28;45298;-88
2022/12/22 11:43:26;;;;;;;;;9.25;2.00;;;;;13.69;76.46;100777.50;5056638;28;46149;-88
2022/12/22 11:46:12;;;;;;;;;7.50;4.00;;;;;13.72;76.26;100772.13;5056656;28;45606;-88
2022/12/22 11:49:08;;;;;;;;;9.25;4.00;;;;;13.75;76.68;100775.47;5056785;28;45342;-89
2022/12/22 11:51:55;;;;;;;;;9.00;3.50;;;;;13.76;76.09;100776.31;5056364;28;45286;-88
2022/12/22 11:54:58;;;;;;;;;8.75;3.00;;;;;13.78;76.21;100774.50;5038446;28;47992;-88
2022/12/22 11:57:43;;;;;;;;;6.25;4.00;;;;;13.79;75.81;100755.25;5038269;28;45414;-88
2022/12/22 12:00:09;;;;;;;;;3.25;3.25;;;;;13.83;75.79;100756.81;5038547;28;45385;-88
2022/12/22 12:03:02;;;;;;;;;6.75;3.50;;;;;13.89;75.56;100758.31;5056434;28;45346;-88
2022/12/22 12:05:33;;;;;;;;;8.50;3.00;;;;;13.92;75.62;100752.97;5055953;28;46606;-88
2022/12/22 12:08:10;;;;;;;;;1.00;0.00;;;;;13.93;75.37;100752.91;5038125;28;46038;-89
2022/12/22 12:10:54;;;;;;;;;8.00;4.00;;;;;13.94;75.46;100735.44;5038209;28;45465;-88
2022/12/22 12:13:29;;;;;;;;;9.50;3.00;;;;;13.93;75.30;100747.69;5038854;28;45319;-88
2022/12/22 12:16:26;;;;;;;;;5.75;3.25;;;;;13.92;75.46;100745.13;5038196;28;47511;-88
2022/12/22 12:19:22;;;;;;;;;8.50;3.00;;;;;13.90;75.27;100733.88;5042508;28;45266;-88
2022/12/22 12:21:54;;;;;;;;;3.75;2.50;;;;;13.91;75.62;100738.19;5056096;28;45350;-88
2022/12/22 12:24:25;;;;;;;;;14.00;5.50;;;;;13.93;75.50;100731.13;5038401;28;45528;-89
2022/12/22 12:26:56;;;;;;;;;8.25;3.25;;;;;13.91;75.02;100735.56;5056053;28;45313;-87
2022/12/22 12:29:27;;;;;;;;;6.75;3.50;;;;;13.87;74.96;100723.53;5056006;28;45179;-88
2022/12/22 12:32:03;;;;;;;;;9.00;3.50;;;;;13.84;75.28;100707.97;5038319;28;45431;-88
2022/12/22 12:34:32;;;;;;;;;11.75;4.00;;;;;13.83;75.30;100714.13;5056008;28;45314;-88
2022/12/22 12:37:04;;;;;;;;;9.75;3.00;;;;;13.79;75.63;100713.41;5037777;28;45620;-87
2022/12/22 12:40:07;;;;;;;;;7.00;5.00;;;;;13.76;75.45;100705.66;5037936;28;45257;-88
2022/12/22 12:42:36;;;;;;;;;8.50;1.00;;;;;13.74;75.52;100691.81;5055875;28;45389;-88
2022/12/22 12:45:04;;;;;;;;;4.50;3.00;;;;;13.78;75.56;100703.00;5037813;28;45417;-88
2022/12/22 12:47:32;;;;;;;;;8.50;3.50;;;;;13.78;76.02;100692.53;5059350;28;46680;-88
2022/12/22 12:50:29;;;;;;;;;5.00;3.00;;;;;13.72;76.04;100689.28;5058968;28;45725;-88
2022/12/22 12:52:58;;;;;;;;;14.00;6.75;;;;;13.71;76.17;100689.34;5059511;28;45431;-89
2022/12/22 12:55:29;;;;;;;;;4.25;0.75;;;;;13.68;76.11;100681.63;5059479;28;45596;-88
2022/12/22 12:57:56;;;;;;;;;14.75;4.25;;;;;13.65;76.64;100669.53;5059244;28;46481;-88
2022/12/22 13:00:31;;;;;;;;;14.75;5.00;;;;;13.64;76.68;100675.66;5041171;28;45207;-88
2022/12/22 13:03:07;;;;;;;;;3.75;1.50;;;;;13.63;77.57;100673.97;5058985;28;45337;-89
2022/12/22 13:05:58;;;;;;;;;8.00;4.50;;;;;13.57;77.71;100678.59;5041281;28;45343;-87
2022/12/22 13:08:31;;;;;;;;;3.75;2.00;;;;;13.48;78.74;100670.25;5058891;28;46480;-87
2022/12/22 13:10:56;;;;;;;;;15.00;9.25;;;;;13.39;79.42;100670.63;5040807;28;45741;-87
2022/12/22 13:13:22;;;;;;;;;7.00;5.50;;;;;13.31;79.70;100657.84;5058932;28;45412;-87
2022/12/22 13:16:07;;;;;;;;;12.25;4.00;;;;;13.22;80.07;100660.81;5059084;28;45344;-88
2022/12/22 13:18:32;;;;;;;;;7.50;3.00;;;;;13.14;80.60;100660.28;5056638;28;47861;-85
2022/12/22 13:21:11;;;;;;;;;6.00;2.75;;;;;13.06;81.26;100655.38;5057479;28;45421;-86
2022/12/22 13:23:45;;;;;;;;;10.00;4.50;;;;;13.00;81.72;100647.81;5058956;28;45305;-86
2022/12/22 13:26:18;;;;;;;;;4.50;4.00;;;;;12.95;82.23;100650.59;5040887;28;45323;-85
2022/12/22 13:28:53;;;;;;;;;10.00;4.00;;;;;12.91;82.31;100649.00;5040778;28;46521;-85
2022/12/22 13:31:23;;;;;;;;;5.50;3.25;;;;;12.88;82.78;100646.50;5040803;28;45372;-85
2022/12/22 13:34:03;;;;;;;;;4.00;3.00;;;;;12.85;83.33;100649.25;5040468;28;45421;-86
2022/12/22 13:36:30;;;;;;;;;8.50;3.50;;;;;12.83;83.38;100642.38;5040929;28;45460;-86
2022/12/22 13:39:04;;;;;;;;;8.00;6.75;;;;;12.79;84.03;100639.88;5040445;28;46512;-86
2022/12/22 13:41:31;;;;;;;;;6.00;2.00;;;;;12.76;84.46;100631.34;5023578;28;45924;-86
2022/12/22 13:44:03;;;;;;;;;6.00;2.75;;;;;12.71;84.48;100623.69;5040814;28;45384;-86
2022/12/22 13:46:28;;;;;;;;;3.00;3.00;;;;;12.71;84.79;100623.69;5058176;28;45500;-85
2022/12/22 13:48:55;;;;;;;;;3.75;2.75;;;;;12.70;84.85;100622.00;5040269;28;46296;-86
2022/12/22 13:51:27;;;;;;;;;12.50;4.00;;;;;12.70;84.71;100618.50;5040291;28;45265;-86
2022/12/22 13:53:59;;;;;;;;;6.50;3.25;;;;;12.65;85.47;100610.88;5023858;28;45377;-86
2022/12/22 13:56:32;;;;;;;;;9.50;5.75;;;;;12.58;85.27;100609.41;5023440;28;45351;-87
2022/12/22 13:59:00;;;;;;;;;9.25;4.00;;;;;12.53;85.75;100606.13;5040125;28;45418;-87
2022/12/22 14:01:26;;;;;;;;;8.25;5.50;;;;;12.50;86.37;100601.88;5057680;28;45440;-86
2022/12/22 14:04:00;;;;;;;;;9.25;3.75;;;;;12.48;86.21;100598.47;5040390;28;45494;-86
2022/12/22 14:06:27;;;;;;;;;7.50;4.50;;;;;12.45;86.74;100593.38;5058315;28;45511;-87
2022/12/22 14:08:53;;;;;;;;;7.75;2.50;;;;;12.46;87.08;100596.81;5035779;28;47225;-86
2022/12/22 14:11:19;;;;;;;;;3.00;2.00;;;;;12.45;87.42;100579.47;5016331;28;45363;-86
2022/12/22 14:13:44;;;;;;;;;6.75;4.00;;;;;12.42;87.31;100582.19;5015092;28;59510;-86
2022/12/22 14:16:12;;;;;;;;;11.25;6.25;;;;;12.38;88.31;100574.47;5016156;28;53332;-86
2022/12/22 14:18:38;;;;;;;;;5.00;2.25;;;;;12.36;88.23;100570.25;5015625;28;45404;-86
2022/12/22 14:21:04;;;;;;;;;8.50;2.00;;;;;12.34;87.93;100562.47;5016894;28;45557;-86
2022/12/22 14:23:32;;;;;;;;;3.00;2.00;;;;;12.32;88.07;100566.06;5016875;28;45564;-86
2022/12/22 14:25:58;;;;;;;;;3.50;1.50;;;;;12.30;88.64;100570.47;5015824;28;45409;-86
2022/12/22 14:28:38;;;;;;;;;5.25;3.00;;;;;12.28;89.19;100561.88;5015485;28;45406;-86
2022/12/22 14:31:05;;;;;;;;;7.25;3.00;;;;;12.26;89.24;100567.13;5015072;28;45690;-86
2022/12/22 14:33:32;;;;;;;;;3.00;2.00;;;;;12.24;89.55;100565.47;5015420;28;45428;-86
2022/12/22 14:36:13;;;;;;;;;7.50;3.00;;;;;12.20;89.79;100573.44;5015400;28;45421;-86
2022/12/22 14:38:42;;;;;;;;;5.50;3.25;;;;;12.18;90.27;100574.41;5031544;28;48213;-84
2022/12/22 14:41:39;;;;;;;;;9.50;3.75;;;;;12.18;90.24;100550.91;5018408;28;45457;-85
2022/12/22 14:43:57;;;;;;;;;6.25;2.00;;;;;12.17;90.75;100530.97;5035103;28;45309;-84
2022/12/22 14:46:22;;;;;;;;;4.00;2.00;;;;;12.17;90.61;100523.13;5034658;28;45447;-84
2022/12/22 14:48:48;;;;;;;;;2.75;1.00;;;;;12.18;90.43;100519.59;5034210;28;61975;-84
2022/12/22 14:51:18;;;;;;;;;1.75;1.75;;;;;12.18;90.98;100515.25;5034688;28;45179;-84
2022/12/22 14:53:49;;;;;;;;;6.50;3.00;;;;;12.22;91.17;100504.66;5035046;28;45308;-84
2022/12/22 14:56:16;;;;;;;;;8.00;3.00;;;;;12.23;90.95;100506.38;5018178;28;45611;-84
2022/12/22 14:58:42;;;;;;;;;6.75;4.25;;;;;12.24;90.55;100508.94;5034231;28;46351;-84
2022/12/22 15:01:23;;;;;;;;;7.00;2.75;;;;;12.25;91.11;100494.13;5035696;28;45503;-85
2022/12/22 15:03:58;;;;;;;;;3.00;3.00;;;;;12.25;91.11;100492.34;5034809;28;45612;-84
2022/12/22 15:06:27;;;;;;;;;5.50;2.00;;;;;12.27;91.20;100493.13;5036231;28;45372;-84
2022/12/22 15:09:05;;;;;;;;;2.75;1.75;;;;;12.30;91.11;100484.38;4998508;28;1351467;-85
2022/12/22 15:11:31;;;;;;;;;8.75;6.25;;;;;12.33;90.91;100473.78;5057220;28;45829;-85
2022/12/22 15:13:57;;;;;;;;;7.00;4.00;;;;;12.35;91.09;100462.38;5039120;28;45417;-84